sensor_id;sensor_type;location;lat;lon;timestamp;P1;durP1;ratioP1;P2;durP2;ratioP2
20758;SDS011;10539;53.686;9.158;2022-08-18T00:00:00;48.25;;;34.42;;
20758;SDS011;10539;53.686;9.158;2022-08-18T00:02:27;47.97;;;33.97;;
20758;SDS011;10539;53.686;9.158;2022-08-18T00:04:54;51.53;;;34.90;;
20758;SDS011;10539;53.686;9.158;2022-08-18T00:07:25;49.53;;;34.85;;
20758;SDS011;10539;53.686;9.158;2022-08-18T00:09:53;50.15;;;35.97;;
20758;SDS011;10539;53.686;9.158;2022-08-18T00:12:28;45.85;;;34.75;;
20758;SDS011;10539;53.686;9.158;2022-08-18T00:14:59;48.17;;;34.17;;
20758;SDS011;10539;53.686;9.158;2022-08-18T00:17:28;46.67;;;32.95;;
20758;SDS011;10539;53.686;9.158;2022-08-18T00:19:54;45.35;;;33.80;;
20758;SDS011;10539;53.686;9.158;2022-08-18T00:22:20;46.88;;;32.65;;
20758;SDS011;10539;53.686;9.158;2022-08-18T00:24:48;44.45;;;32.90;;
20758;SDS011;10539;53.686;9.158;2022-08-18T00:27:17;45.97;;;32.20;;
20758;SDS011;10539;53.686;9.158;2022-08-18T00:29:47;44.13;;;32.45;;
20758;SDS011;10539;53.686;9.158;2022-08-18T00:32:15;46.15;;;33.42;;
20758;SDS011;10539;53.686;9.158;2022-08-18T00:34:42;50.50;;;33.15;;
20758;SDS011;10539;53.686;9.158;2022-08-18T00:37:08;46.33;;;32.63;;
20758;SDS011;10539;53.686;9.158;2022-08-18T00:39:34;43.58;;;32.75;;
20758;SDS011;10539;53.686;9.158;2022-08-18T00:42:16;44.38;;;31.23;;
20758;SDS011;10539;53.686;9.158;2022-08-18T00:44:51;42.97;;;30.67;;
20758;SDS011;10539;53.686;9.158;2022-08-18T00:47:17;41.42;;;29.63;;
20758;SDS011;10539;53.686;9.158;2022-08-18T00:49:42;44.13;;;31.38;;
20758;SDS011;10539;53.686;9.158;2022-08-18T00:52:11;42.17;;;30.05;;
20758;SDS011;10539;53.686;9.158;2022-08-18T00:54:40;41.83;;;31.23;;
20758;SDS011;10539;53.686;9.158;2022-08-18T00:57:09;44.13;;;30.98;;
20758;SDS011;10539;53.686;9.158;2022-08-18T01:02:11;46.03;;;31.00;;
20758;SDS011;10539;53.686;9.158;2022-08-18T01:04:44;41.95;;;30.02;;
20758;SDS011;10539;53.686;9.158;2022-08-18T01:07:17;45.07;;;31.00;;
20758;SDS011;10539;53.686;9.158;2022-08-18T01:09:46;46.15;;;30.17;;
20758;SDS011;10539;53.686;9.158;2022-08-18T01:12:13;39.50;;;27.92;;
20758;SDS011;10539;53.686;9.158;2022-08-18T01:14:39;39.15;;;27.83;;
20758;SDS011;10539;53.686;9.158;2022-08-18T01:17:05;37.27;;;26.10;;
20758;SDS011;10539;53.686;9.158;2022-08-18T01:19:49;34.00;;;24.27;;
20758;SDS011;10539;53.686;9.158;2022-08-18T01:25:12;32.57;;;23.47;;
20758;SDS011;10539;53.686;9.158;2022-08-18T01:27:57;27.57;;;20.97;;
20758;SDS011;10539;53.686;9.158;2022-08-18T01:30:26;30.05;;;21.38;;
20758;SDS011;10539;53.686;9.158;2022-08-18T01:32:52;32.08;;;21.77;;
20758;SDS011;10539;53.686;9.158;2022-08-18T01:35:18;29.10;;;21.80;;
20758;SDS011;10539;53.686;9.158;2022-08-18T01:37:47;28.20;;;21.00;;
20758;SDS011;10539;53.686;9.158;2022-08-18T01:40:14;29.57;;;21.87;;
20758;SDS011;10539;53.686;9.158;2022-08-18T01:42:41;27.35;;;19.63;;
20758;SDS011;10539;53.686;9.158;2022-08-18T01:45:11;31.07;;;22.53;;
20758;SDS011;10539;53.686;9.158;2022-08-18T01:47:42;27.50;;;20.80;;
20758;SDS011;10539;53.686;9.158;2022-08-18T01:50:09;28.97;;;21.63;;
20758;SDS011;10539;53.686;9.158;2022-08-18T01:52:37;28.80;;;20.38;;
20758;SDS011;10539;53.686;9.158;2022-08-18T01:55:03;28.20;;;20.50;;
20758;SDS011;10539;53.686;9.158;2022-08-18T01:57:32;28.10;;;21.03;;
20758;SDS011;10539;53.686;9.158;2022-08-18T01:59:59;30.80;;;20.57;;
20758;SDS011;10539;53.686;9.158;2022-08-18T02:02:27;30.38;;;20.48;;
20758;SDS011;10539;53.686;9.158;2022-08-18T02:04:58;28.92;;;20.08;;
20758;SDS011;10539;53.686;9.158;2022-08-18T02:07:29;28.52;;;19.88;;
20758;SDS011;10539;53.686;9.158;2022-08-18T02:09:55;31.00;;;20.85;;
20758;SDS011;10539;53.686;9.158;2022-08-18T02:12:20;26.03;;;20.27;;
20758;SDS011;10539;53.686;9.158;2022-08-18T02:14:46;28.23;;;20.70;;
20758;SDS011;10539;53.686;9.158;2022-08-18T02:17:12;32.23;;;21.43;;
20758;SDS011;10539;53.686;9.158;2022-08-18T02:19:47;28.48;;;20.80;;
20758;SDS011;10539;53.686;9.158;2022-08-18T02:22:14;29.48;;;21.17;;
20758;SDS011;10539;53.686;9.158;2022-08-18T02:24:42;32.83;;;21.50;;
20758;SDS011;10539;53.686;9.158;2022-08-18T02:27:09;28.93;;;21.23;;
20758;SDS011;10539;53.686;9.158;2022-08-18T02:29:36;28.40;;;20.83;;
20758;SDS011;10539;53.686;9.158;2022-08-18T02:32:02;28.50;;;20.48;;
20758;SDS011;10539;53.686;9.158;2022-08-18T02:34:28;28.35;;;21.35;;
20758;SDS011;10539;53.686;9.158;2022-08-18T02:36:54;27.57;;;21.43;;
20758;SDS011;10539;53.686;9.158;2022-08-18T02:39:20;27.73;;;21.30;;
20758;SDS011;10539;53.686;9.158;2022-08-18T02:41:45;28.60;;;21.35;;
20758;SDS011;10539;53.686;9.158;2022-08-18T02:44:11;25.33;;;19.95;;
20758;SDS011;10539;53.686;9.158;2022-08-18T02:46:37;33.95;;;22.60;;
20758;SDS011;10539;53.686;9.158;2022-08-18T02:49:03;31.90;;;21.05;;
20758;SDS011;10539;53.686;9.158;2022-08-18T02:51:30;29.17;;;20.42;;
20758;SDS011;10539;53.686;9.158;2022-08-18T02:53:56;34.00;;;21.58;;
20758;SDS011;10539;53.686;9.158;2022-08-18T02:56:26;33.83;;;23.37;;
20758;SDS011;10539;53.686;9.158;2022-08-18T03:01:22;33.92;;;23.60;;
20758;SDS011;10539;53.686;9.158;2022-08-18T03:03:50;36.77;;;23.53;;
20758;SDS011;10539;53.686;9.158;2022-08-18T03:06:17;39.03;;;24.10;;
20758;SDS011;10539;53.686;9.158;2022-08-18T03:08:44;36.30;;;23.93;;
20758;SDS011;10539;53.686;9.158;2022-08-18T03:11:18;35.17;;;24.00;;
20758;SDS011;10539;53.686;9.158;2022-08-18T03:13:49;41.00;;;25.07;;
20758;SDS011;10539;53.686;9.158;2022-08-18T03:16:16;40.97;;;25.47;;
20758;SDS011;10539;53.686;9.158;2022-08-18T03:18:43;43.07;;;25.93;;
20758;SDS011;10539;53.686;9.158;2022-08-18T03:21:14;40.97;;;26.27;;
20758;SDS011;10539;53.686;9.158;2022-08-18T03:23:48;39.73;;;27.17;;
20758;SDS011;10539;53.686;9.158;2022-08-18T03:26:15;41.13;;;27.20;;
20758;SDS011;10539;53.686;9.158;2022-08-18T03:28:44;38.10;;;26.00;;
20758;SDS011;10539;53.686;9.158;2022-08-18T03:31:11;40.07;;;26.50;;
20758;SDS011;10539;53.686;9.158;2022-08-18T03:33:41;42.77;;;27.83;;
20758;SDS011;10539;53.686;9.158;2022-08-18T03:36:09;40.83;;;26.30;;
20758;SDS011;10539;53.686;9.158;2022-08-18T03:38:37;46.13;;;27.93;;
20758;SDS011;10539;53.686;9.158;2022-08-18T03:41:05;44.13;;;27.60;;
20758;SDS011;10539;53.686;9.158;2022-08-18T03:43:31;42.97;;;27.73;;
20758;SDS011;10539;53.686;9.158;2022-08-18T03:46:00;45.97;;;29.47;;
20758;SDS011;10539;53.686;9.158;2022-08-18T03:48:28;48.10;;;28.83;;
20758;SDS011;10539;53.686;9.158;2022-08-18T03:50:54;47.57;;;28.57;;
20758;SDS011;10539;53.686;9.158;2022-08-18T03:53:26;48.27;;;30.23;;
20758;SDS011;10539;53.686;9.158;2022-08-18T03:55:51;47.50;;;29.23;;
20758;SDS011;10539;53.686;9.158;2022-08-18T03:58:17;46.63;;;29.90;;
20758;SDS011;10539;53.686;9.158;2022-08-18T04:00:43;49.83;;;29.10;;
20758;SDS011;10539;53.686;9.158;2022-08-18T04:03:08;47.83;;;29.67;;
20758;SDS011;10539;53.686;9.158;2022-08-18T04:05:38;52.10;;;29.73;;
20758;SDS011;10539;53.686;9.158;2022-08-18T04:08:04;48.07;;;28.50;;
20758;SDS011;10539;53.686;9.158;2022-08-18T04:10:31;56.23;;;31.03;;
20758;SDS011;10539;53.686;9.158;2022-08-18T04:12:57;47.63;;;29.97;;
20758;SDS011;10539;53.686;9.158;2022-08-18T04:15:23;49.93;;;29.07;;
20758;SDS011;10539;53.686;9.158;2022-08-18T04:17:49;49.77;;;29.23;;
20758;SDS011;10539;53.686;9.158;2022-08-18T04:20:15;47.00;;;30.50;;
20758;SDS011;10539;53.686;9.158;2022-08-18T04:22:41;48.77;;;29.77;;
20758;SDS011;10539;53.686;9.158;2022-08-18T04:25:07;47.50;;;29.10;;
20758;SDS011;10539;53.686;9.158;2022-08-18T04:27:36;46.50;;;29.33;;
20758;SDS011;10539;53.686;9.158;2022-08-18T04:30:07;51.30;;;29.63;;
20758;SDS011;10539;53.686;9.158;2022-08-18T04:32:33;50.87;;;28.83;;
20758;SDS011;10539;53.686;9.158;2022-08-18T04:34:59;47.47;;;28.57;;
20758;SDS011;10539;53.686;9.158;2022-08-18T04:37:25;51.63;;;28.23;;
20758;SDS011;10539;53.686;9.158;2022-08-18T04:39:50;41.40;;;27.43;;
20758;SDS011;10539;53.686;9.158;2022-08-18T04:42:16;40.97;;;27.47;;
20758;SDS011;10539;53.686;9.158;2022-08-18T04:44:42;45.03;;;28.50;;
20758;SDS011;10539;53.686;9.158;2022-08-18T04:47:08;41.57;;;27.33;;
20758;SDS011;10539;53.686;9.158;2022-08-18T04:49:34;39.57;;;26.07;;
20758;SDS011;10539;53.686;9.158;2022-08-18T04:52:00;40.83;;;26.30;;
20758;SDS011;10539;53.686;9.158;2022-08-18T04:54:48;41.33;;;26.37;;
20758;SDS011;10539;53.686;9.158;2022-08-18T04:57:16;36.37;;;26.03;;
20758;SDS011;10539;53.686;9.158;2022-08-18T04:59:44;44.30;;;27.40;;
20758;SDS011;10539;53.686;9.158;2022-08-18T05:02:11;38.23;;;26.80;;
20758;SDS011;10539;53.686;9.158;2022-08-18T05:04:40;34.00;;;24.13;;
20758;SDS011;10539;53.686;9.158;2022-08-18T05:07:11;38.33;;;24.73;;
20758;SDS011;10539;53.686;9.158;2022-08-18T05:09:39;37.13;;;25.33;;
20758;SDS011;10539;53.686;9.158;2022-08-18T05:12:06;36.33;;;25.00;;
20758;SDS011;10539;53.686;9.158;2022-08-18T05:14:33;37.60;;;26.23;;
20758;SDS011;10539;53.686;9.158;2022-08-18T05:17:00;135.33;;;28.30;;
20758;SDS011;10539;53.686;9.158;2022-08-18T05:19:28;229.20;;;28.57;;
20758;SDS011;10539;53.686;9.158;2022-08-18T05:21:55;376.93;;;31.00;;
20758;SDS011;10539;53.686;9.158;2022-08-18T05:24:24;201.57;;;25.07;;
20758;SDS011;10539;53.686;9.158;2022-08-18T05:26:51;128.10;;;23.47;;
20758;SDS011;10539;53.686;9.158;2022-08-18T05:29:20;81.93;;;22.97;;
20758;SDS011;10539;53.686;9.158;2022-08-18T05:31:47;64.60;;;22.17;;
20758;SDS011;10539;53.686;9.158;2022-08-18T05:34:15;79.43;;;22.27;;
20758;SDS011;10539;53.686;9.158;2022-08-18T05:41:45;31.77;;;24.37;;
20758;SDS011;10539;53.686;9.158;2022-08-18T05:44:29;35.67;;;24.73;;
20758;SDS011;10539;53.686;9.158;2022-08-18T05:46:58;48.07;;;28.33;;
20758;SDS011;10539;53.686;9.158;2022-08-18T05:49:36;38.93;;;26.97;;
20758;SDS011;10539;53.686;9.158;2022-08-18T05:52:05;44.23;;;29.07;;
20758;SDS011;10539;53.686;9.158;2022-08-18T05:54:47;48.17;;;29.20;;
20758;SDS011;10539;53.686;9.158;2022-08-18T05:57:58;58.60;;;31.30;;
20758;SDS011;10539;53.686;9.158;2022-08-18T06:00:24;67.93;;;35.30;;
20758;SDS011;10539;53.686;9.158;2022-08-18T06:02:56;75.93;;;38.07;;
20758;SDS011;10539;53.686;9.158;2022-08-18T06:05:27;66.90;;;35.13;;
20758;SDS011;10539;53.686;9.158;2022-08-18T06:07:59;73.27;;;36.43;;
20758;SDS011;10539;53.686;9.158;2022-08-18T06:10:29;74.83;;;38.03;;
20758;SDS011;10539;53.686;9.158;2022-08-18T06:12:59;73.70;;;38.27;;
20758;SDS011;10539;53.686;9.158;2022-08-18T06:23:47;69.60;;;37.27;;
20758;SDS011;10539;53.686;9.158;2022-08-18T06:37:29;63.13;;;35.80;;
20758;SDS011;10539;53.686;9.158;2022-08-18T06:40:32;60.80;;;35.13;;
20758;SDS011;10539;53.686;9.158;2022-08-18T06:42:58;57.17;;;35.30;;
20758;SDS011;10539;53.686;9.158;2022-08-18T06:45:25;60.23;;;34.57;;
20758;SDS011;10539;53.686;9.158;2022-08-18T06:48:06;60.17;;;33.50;;
20758;SDS011;10539;53.686;9.158;2022-08-18T06:50:49;56.90;;;33.47;;
20758;SDS011;10539;53.686;9.158;2022-08-18T06:53:17;56.77;;;33.53;;
20758;SDS011;10539;53.686;9.158;2022-08-18T06:55:45;56.80;;;34.23;;
20758;SDS011;10539;53.686;9.158;2022-08-18T07:03:20;67.00;;;34.50;;
20758;SDS011;10539;53.686;9.158;2022-08-18T07:05:56;74.73;;;36.30;;
20758;SDS011;10539;53.686;9.158;2022-08-18T07:11:00;69.37;;;36.43;;
20758;SDS011;10539;53.686;9.158;2022-08-18T07:13:48;72.10;;;36.07;;
20758;SDS011;10539;53.686;9.158;2022-08-18T07:18:53;76.03;;;37.23;;
20758;SDS011;10539;53.686;9.158;2022-08-18T07:21:31;79.20;;;37.27;;
20758;SDS011;10539;53.686;9.158;2022-08-18T07:24:00;74.40;;;37.40;;
20758;SDS011;10539;53.686;9.158;2022-08-18T07:26:30;81.17;;;37.37;;
20758;SDS011;10539;53.686;9.158;2022-08-18T07:29:16;78.77;;;38.57;;
20758;SDS011;10539;53.686;9.158;2022-08-18T07:31:44;80.50;;;38.67;;
20758;SDS011;10539;53.686;9.158;2022-08-18T07:34:19;80.23;;;39.40;;
20758;SDS011;10539;53.686;9.158;2022-08-18T07:36:48;83.13;;;37.93;;
20758;SDS011;10539;53.686;9.158;2022-08-18T07:39:25;78.53;;;37.87;;
20758;SDS011;10539;53.686;9.158;2022-08-18T07:42:04;79.90;;;40.83;;
20758;SDS011;10539;53.686;9.158;2022-08-18T07:44:52;83.77;;;40.50;;
20758;SDS011;10539;53.686;9.158;2022-08-18T07:47:44;85.47;;;42.17;;
20758;SDS011;10539;53.686;9.158;2022-08-18T07:50:06;86.88;;;42.30;;
20758;SDS011;10539;53.686;9.158;2022-08-18T07:52:36;87.95;;;41.97;;
20758;SDS011;10539;53.686;9.158;2022-08-18T07:57:51;85.47;;;41.33;;
20758;SDS011;10539;53.686;9.158;2022-08-18T08:25:25;89.70;;;43.85;;
20758;SDS011;10539;53.686;9.158;2022-08-18T08:28:07;86.53;;;43.40;;
20758;SDS011;10539;53.686;9.158;2022-08-18T08:33:32;83.57;;;44.58;;
20758;SDS011;10539;53.686;9.158;2022-08-18T08:36:10;79.10;;;43.80;;
20758;SDS011;10539;53.686;9.158;2022-08-18T08:41:12;75.23;;;42.37;;
20758;SDS011;10539;53.686;9.158;2022-08-18T08:43:44;74.63;;;41.50;;
20758;SDS011;10539;53.686;9.158;2022-08-18T08:46:46;78.93;;;42.72;;
20758;SDS011;10539;53.686;9.158;2022-08-18T08:52:17;69.17;;;41.57;;
20758;SDS011;10539;53.686;9.158;2022-08-18T08:54:49;70.13;;;41.25;;
20758;SDS011;10539;53.686;9.158;2022-08-18T08:57:26;61.83;;;38.72;;
20758;SDS011;10539;53.686;9.158;2022-08-18T08:59:57;60.55;;;38.20;;
20758;SDS011;10539;53.686;9.158;2022-08-18T09:02:48;58.38;;;35.92;;
20758;SDS011;10539;53.686;9.158;2022-08-18T09:06:24;60.13;;;37.90;;
20758;SDS011;10539;53.686;9.158;2022-08-18T09:16:33;52.47;;;34.05;;
20758;SDS011;10539;53.686;9.158;2022-08-18T09:26:49;49.67;;;33.78;;
20758;SDS011;10539;53.686;9.158;2022-08-18T09:35:02;49.03;;;34.28;;
20758;SDS011;10539;53.686;9.158;2022-08-18T09:37:53;48.30;;;34.63;;
20758;SDS011;10539;53.686;9.158;2022-08-18T09:41:29;44.33;;;32.13;;
20758;SDS011;10539;53.686;9.158;2022-08-18T09:44:03;42.40;;;30.92;;
20758;SDS011;10539;53.686;9.158;2022-08-18T09:51:58;43.55;;;29.92;;
20758;SDS011;10539;53.686;9.158;2022-08-18T09:54:26;41.17;;;29.05;;
20758;SDS011;10539;53.686;9.158;2022-08-18T10:07:45;40.83;;;29.15;;
20758;SDS011;10539;53.686;9.158;2022-08-18T10:19:05;29.40;;;23.52;;
20758;SDS011;10539;53.686;9.158;2022-08-18T10:34:37;30.63;;;23.23;;
20758;SDS011;10539;53.686;9.158;2022-08-18T10:40:02;27.75;;;19.90;;
20758;SDS011;10539;53.686;9.158;2022-08-18T10:45:11;30.10;;;23.25;;
20758;SDS011;10539;53.686;9.158;2022-08-18T10:47:44;32.25;;;22.83;;
20758;SDS011;10539;53.686;9.158;2022-08-18T10:56:10;31.00;;;22.40;;
20758;SDS011;10539;53.686;9.158;2022-08-18T10:59:00;33.42;;;24.15;;
20758;SDS011;10539;53.686;9.158;2022-08-18T11:01:37;26.10;;;19.10;;
20758;SDS011;10539;53.686;9.158;2022-08-18T11:06:50;21.23;;;16.75;;
20758;SDS011;10539;53.686;9.158;2022-08-18T11:09:25;20.65;;;16.27;;
20758;SDS011;10539;53.686;9.158;2022-08-18T11:11:53;22.83;;;17.50;;
20758;SDS011;10539;53.686;9.158;2022-08-18T11:17:16;20.83;;;15.48;;
20758;SDS011;10539;53.686;9.158;2022-08-18T11:20:08;15.60;;;13.95;;
20758;SDS011;10539;53.686;9.158;2022-08-18T11:22:36;18.20;;;14.00;;
20758;SDS011;10539;53.686;9.158;2022-08-18T11:25:03;15.60;;;13.45;;
20758;SDS011;10539;53.686;9.158;2022-08-18T11:27:47;16.02;;;13.50;;
20758;SDS011;10539;53.686;9.158;2022-08-18T11:30:13;12.65;;;11.00;;
20758;SDS011;10539;53.686;9.158;2022-08-18T11:32:39;13.18;;;10.98;;
20758;SDS011;10539;53.686;9.158;2022-08-18T11:58:39;17.73;;;14.27;;
20758;SDS011;10539;53.686;9.158;2022-08-18T12:01:09;17.17;;;13.25;;
20758;SDS011;10539;53.686;9.158;2022-08-18T12:03:44;18.52;;;14.60;;
20758;SDS011;10539;53.686;9.158;2022-08-18T12:06:28;17.40;;;12.93;;
20758;SDS011;10539;53.686;9.158;2022-08-18T12:09:05;15.40;;;11.35;;
20758;SDS011;10539;53.686;9.158;2022-08-18T12:11:53;13.68;;;11.10;;
20758;SDS011;10539;53.686;9.158;2022-08-18T12:14:33;15.43;;;12.50;;
20758;SDS011;10539;53.686;9.158;2022-08-18T12:17:17;14.93;;;12.55;;
20758;SDS011;10539;53.686;9.158;2022-08-18T12:19:43;16.95;;;12.52;;
20758;SDS011;10539;53.686;9.158;2022-08-18T12:22:14;15.98;;;11.30;;
20758;SDS011;10539;53.686;9.158;2022-08-18T12:24:44;15.65;;;13.52;;
20758;SDS011;10539;53.686;9.158;2022-08-18T12:27:12;17.10;;;12.30;;
20758;SDS011;10539;53.686;9.158;2022-08-18T12:29:39;17.08;;;11.20;;
20758;SDS011;10539;53.686;9.158;2022-08-18T12:32:06;13.52;;;11.23;;
20758;SDS011;10539;53.686;9.158;2022-08-18T12:34:32;13.80;;;11.15;;
20758;SDS011;10539;53.686;9.158;2022-08-18T12:36:58;12.05;;;10.85;;
20758;SDS011;10539;53.686;9.158;2022-08-18T12:39:27;15.88;;;11.48;;
20758;SDS011;10539;53.686;9.158;2022-08-18T12:41:54;18.40;;;13.95;;
20758;SDS011;10539;53.686;9.158;2022-08-18T12:44:21;13.73;;;11.73;;
20758;SDS011;10539;53.686;9.158;2022-08-18T12:46:47;16.92;;;11.90;;
20758;SDS011;10539;53.686;9.158;2022-08-18T12:49:14;13.90;;;12.13;;
20758;SDS011;10539;53.686;9.158;2022-08-18T12:51:42;15.80;;;11.82;;
20758;SDS011;10539;53.686;9.158;2022-08-18T12:54:08;13.82;;;11.52;;
20758;SDS011;10539;53.686;9.158;2022-08-18T12:56:34;15.93;;;11.80;;
20758;SDS011;10539;53.686;9.158;2022-08-18T12:59:01;15.60;;;12.25;;
20758;SDS011;10539;53.686;9.158;2022-08-18T13:01:28;14.77;;;12.07;;
20758;SDS011;10539;53.686;9.158;2022-08-18T13:03:55;14.50;;;11.23;;
20758;SDS011;10539;53.686;9.158;2022-08-18T13:06:21;20.08;;;13.32;;
20758;SDS011;10539;53.686;9.158;2022-08-18T13:08:48;15.02;;;12.93;;
20758;SDS011;10539;53.686;9.158;2022-08-18T13:11:15;15.60;;;12.23;;
20758;SDS011;10539;53.686;9.158;2022-08-18T13:13:43;14.75;;;12.32;;
20758;SDS011;10539;53.686;9.158;2022-08-18T13:16:09;14.73;;;11.52;;
20758;SDS011;10539;53.686;9.158;2022-08-18T13:18:36;13.65;;;10.57;;
20758;SDS011;10539;53.686;9.158;2022-08-18T13:21:07;13.93;;;10.30;;
20758;SDS011;10539;53.686;9.158;2022-08-18T13:23:35;18.48;;;10.80;;
20758;SDS011;10539;53.686;9.158;2022-08-18T13:26:01;11.88;;;9.10;;
20758;SDS011;10539;53.686;9.158;2022-08-18T13:28:30;13.55;;;8.40;;
20758;SDS011;10539;53.686;9.158;2022-08-18T13:30:57;11.70;;;7.97;;
20758;SDS011;10539;53.686;9.158;2022-08-18T13:33:23;9.60;;;7.38;;
20758;SDS011;10539;53.686;9.158;2022-08-18T13:35:50;16.83;;;7.60;;
20758;SDS011;10539;53.686;9.158;2022-08-18T13:38:17;13.57;;;7.65;;
20758;SDS011;10539;53.686;9.158;2022-08-18T13:40:51;13.30;;;7.65;;
20758;SDS011;10539;53.686;9.158;2022-08-18T13:43:23;12.15;;;7.70;;
20758;SDS011;10539;53.686;9.158;2022-08-18T13:45:56;13.73;;;8.38;;
20758;SDS011;10539;53.686;9.158;2022-08-18T13:48:24;11.13;;;7.82;;
20758;SDS011;10539;53.686;9.158;2022-08-18T13:50:52;10.27;;;7.45;;
20758;SDS011;10539;53.686;9.158;2022-08-18T13:53:19;13.60;;;7.97;;
20758;SDS011;10539;53.686;9.158;2022-08-18T13:55:45;13.25;;;8.32;;
20758;SDS011;10539;53.686;9.158;2022-08-18T13:58:14;10.15;;;7.80;;
20758;SDS011;10539;53.686;9.158;2022-08-18T14:00:41;18.10;;;9.48;;
20758;SDS011;10539;53.686;9.158;2022-08-18T14:03:10;13.77;;;7.78;;
20758;SDS011;10539;53.686;9.158;2022-08-18T14:05:38;14.23;;;7.68;;
20758;SDS011;10539;53.686;9.158;2022-08-18T14:08:04;16.50;;;7.88;;
20758;SDS011;10539;53.686;9.158;2022-08-18T14:10:30;11.55;;;7.13;;
20758;SDS011;10539;53.686;9.158;2022-08-18T14:13:00;18.45;;;8.02;;
20758;SDS011;10539;53.686;9.158;2022-08-18T14:15:26;14.85;;;7.90;;
20758;SDS011;10539;53.686;9.158;2022-08-18T14:17:52;13.23;;;7.65;;
20758;SDS011;10539;53.686;9.158;2022-08-18T14:20:18;13.63;;;8.35;;
20758;SDS011;10539;53.686;9.158;2022-08-18T14:23:08;11.32;;;6.72;;
20758;SDS011;10539;53.686;9.158;2022-08-18T14:25:52;14.10;;;7.53;;
20758;SDS011;10539;53.686;9.158;2022-08-18T14:28:37;12.18;;;7.40;;
20758;SDS011;10539;53.686;9.158;2022-08-18T14:31:03;10.90;;;7.43;;
20758;SDS011;10539;53.686;9.158;2022-08-18T14:33:29;13.48;;;7.72;;
20758;SDS011;10539;53.686;9.158;2022-08-18T14:35:56;12.82;;;7.70;;
20758;SDS011;10539;53.686;9.158;2022-08-18T14:38:23;12.85;;;8.23;;
20758;SDS011;10539;53.686;9.158;2022-08-18T14:40:48;11.25;;;6.65;;
20758;SDS011;10539;53.686;9.158;2022-08-18T14:43:16;13.82;;;7.55;;
20758;SDS011;10539;53.686;9.158;2022-08-18T14:45:45;15.88;;;8.38;;
20758;SDS011;10539;53.686;9.158;2022-08-18T14:48:16;11.93;;;6.60;;
20758;SDS011;10539;53.686;9.158;2022-08-18T14:50:44;15.05;;;7.07;;
20758;SDS011;10539;53.686;9.158;2022-08-18T14:53:23;17.80;;;8.18;;
20758;SDS011;10539;53.686;9.158;2022-08-18T14:55:51;11.18;;;7.32;;
20758;SDS011;10539;53.686;9.158;2022-08-18T14:58:19;15.05;;;8.43;;
20758;SDS011;10539;53.686;9.158;2022-08-18T15:00:48;14.95;;;8.73;;
20758;SDS011;10539;53.686;9.158;2022-08-18T15:03:14;12.00;;;7.53;;
20758;SDS011;10539;53.686;9.158;2022-08-18T15:05:40;12.15;;;6.93;;
20758;SDS011;10539;53.686;9.158;2022-08-18T15:08:08;17.23;;;8.20;;
20758;SDS011;10539;53.686;9.158;2022-08-18T15:10:35;13.95;;;8.00;;
20758;SDS011;10539;53.686;9.158;2022-08-18T15:13:04;12.50;;;7.63;;
20758;SDS011;10539;53.686;9.158;2022-08-18T15:15:30;16.15;;;7.30;;
20758;SDS011;10539;53.686;9.158;2022-08-18T15:17:56;15.88;;;8.23;;
20758;SDS011;10539;53.686;9.158;2022-08-18T15:20:23;17.15;;;7.88;;
20758;SDS011;10539;53.686;9.158;2022-08-18T15:22:50;13.02;;;7.72;;
20758;SDS011;10539;53.686;9.158;2022-08-18T15:25:42;14.48;;;7.55;;
20758;SDS011;10539;53.686;9.158;2022-08-18T15:28:11;16.77;;;8.15;;
20758;SDS011;10539;53.686;9.158;2022-08-18T15:30:44;13.68;;;8.55;;
20758;SDS011;10539;53.686;9.158;2022-08-18T15:33:12;14.60;;;8.30;;
20758;SDS011;10539;53.686;9.158;2022-08-18T15:35:40;15.18;;;7.57;;
20758;SDS011;10539;53.686;9.158;2022-08-18T15:38:09;18.35;;;7.63;;
20758;SDS011;10539;53.686;9.158;2022-08-18T15:40:37;15.23;;;7.85;;
20758;SDS011;10539;53.686;9.158;2022-08-18T15:43:11;21.65;;;9.38;;
20758;SDS011;10539;53.686;9.158;2022-08-18T15:45:39;13.30;;;7.97;;
20758;SDS011;10539;53.686;9.158;2022-08-18T15:48:11;17.67;;;7.88;;
20758;SDS011;10539;53.686;9.158;2022-08-18T15:50:45;12.77;;;7.70;;
20758;SDS011;10539;53.686;9.158;2022-08-18T15:53:13;13.10;;;7.68;;
20758;SDS011;10539;53.686;9.158;2022-08-18T15:55:46;14.40;;;7.20;;
20758;SDS011;10539;53.686;9.158;2022-08-18T15:58:13;14.20;;;7.20;;
20758;SDS011;10539;53.686;9.158;2022-08-18T16:00:40;13.68;;;8.55;;
20758;SDS011;10539;53.686;9.158;2022-08-18T16:03:09;13.57;;;7.38;;
20758;SDS011;10539;53.686;9.158;2022-08-18T16:05:40;12.52;;;7.53;;
20758;SDS011;10539;53.686;9.158;2022-08-18T16:08:17;12.02;;;6.85;;
20758;SDS011;10539;53.686;9.158;2022-08-18T16:10:44;9.65;;;6.30;;
20758;SDS011;10539;53.686;9.158;2022-08-18T16:13:12;13.55;;;6.80;;
20758;SDS011;10539;53.686;9.158;2022-08-18T16:15:44;11.65;;;7.07;;
20758;SDS011;10539;53.686;9.158;2022-08-18T16:18:13;12.93;;;6.65;;
20758;SDS011;10539;53.686;9.158;2022-08-18T16:20:42;11.63;;;6.40;;
20758;SDS011;10539;53.686;9.158;2022-08-18T16:23:08;12.52;;;6.22;;
20758;SDS011;10539;53.686;9.158;2022-08-18T16:25:36;10.57;;;6.13;;
20758;SDS011;10539;53.686;9.158;2022-08-18T16:28:03;12.82;;;6.18;;
20758;SDS011;10539;53.686;9.158;2022-08-18T16:30:29;11.30;;;6.32;;
20758;SDS011;10539;53.686;9.158;2022-08-18T16:33:00;11.90;;;6.35;;
20758;SDS011;10539;53.686;9.158;2022-08-18T16:35:28;9.00;;;5.30;;
20758;SDS011;10539;53.686;9.158;2022-08-18T16:37:55;8.65;;;5.40;;
20758;SDS011;10539;53.686;9.158;2022-08-18T16:40:25;10.10;;;5.93;;
20758;SDS011;10539;53.686;9.158;2022-08-18T16:42:53;10.18;;;6.00;;
20758;SDS011;10539;53.686;9.158;2022-08-18T16:45:20;9.60;;;6.50;;
20758;SDS011;10539;53.686;9.158;2022-08-18T16:47:46;9.75;;;6.10;;
20758;SDS011;10539;53.686;9.158;2022-08-18T16:50:14;12.52;;;5.88;;
20758;SDS011;10539;53.686;9.158;2022-08-18T16:52:42;9.35;;;5.75;;
20758;SDS011;10539;53.686;9.158;2022-08-18T16:55:09;8.63;;;5.85;;
20758;SDS011;10539;53.686;9.158;2022-08-18T16:57:48;9.23;;;5.85;;
20758;SDS011;10539;53.686;9.158;2022-08-18T17:00:33;9.38;;;6.00;;
20758;SDS011;10539;53.686;9.158;2022-08-18T17:03:20;10.27;;;5.28;;
20758;SDS011;10539;53.686;9.158;2022-08-18T17:06:12;10.70;;;5.45;;
20758;SDS011;10539;53.686;9.158;2022-08-18T17:08:41;9.25;;;4.60;;
20758;SDS011;10539;53.686;9.158;2022-08-18T17:11:17;7.70;;;4.32;;
20758;SDS011;10539;53.686;9.158;2022-08-18T17:13:44;6.32;;;4.68;;
20758;SDS011;10539;53.686;9.158;2022-08-18T17:16:14;8.68;;;4.85;;
20758;SDS011;10539;53.686;9.158;2022-08-18T17:18:41;8.82;;;3.95;;
20758;SDS011;10539;53.686;9.158;2022-08-18T17:21:12;9.85;;;4.18;;
20758;SDS011;10539;53.686;9.158;2022-08-18T17:23:43;7.15;;;4.50;;
20758;SDS011;10539;53.686;9.158;2022-08-18T17:29:41;9.82;;;3.90;;
20758;SDS011;10539;53.686;9.158;2022-08-18T17:31:57;6.18;;;3.70;;
20758;SDS011;10539;53.686;9.158;2022-08-18T17:34:32;6.38;;;3.70;;
20758;SDS011;10539;53.686;9.158;2022-08-18T17:37:03;7.95;;;4.07;;
20758;SDS011;10539;53.686;9.158;2022-08-18T17:39:35;5.63;;;3.28;;
20758;SDS011;10539;53.686;9.158;2022-08-18T17:42:05;8.93;;;3.92;;
20758;SDS011;10539;53.686;9.158;2022-08-18T17:44:50;9.30;;;3.72;;
20758;SDS011;10539;53.686;9.158;2022-08-18T17:47:22;12.38;;;4.28;;